createdAt,value
2023-11-27T00:00:53.900Z,14.60
2023-11-27T00:03:21.274Z,15.57
2023-11-27T00:05:48.360Z,15.50
2023-11-27T00:08:15.637Z,18.97
2023-11-27T00:10:43.503Z,14.90
2023-11-27T00:13:10.576Z,14.40
2023-11-27T00:15:37.436Z,16.50
2023-11-27T00:18:04.569Z,19.87
2023-11-27T00:20:31.533Z,15.43
2023-11-27T00:22:58.390Z,14.37
2023-11-27T00:25:25.314Z,14.97
2023-11-27T00:27:52.175Z,14.60
2023-11-27T00:30:19.069Z,14.03
2023-11-27T00:32:46.097Z,17.90
2023-11-27T00:35:13.218Z,16.23
2023-11-27T00:37:40.138Z,13.93
2023-11-27T00:40:07.740Z,16.23
2023-11-27T00:42:35.220Z,13.20
2023-11-27T00:45:02.120Z,13.50
2023-11-27T00:47:29.329Z,17.60
2023-11-27T00:49:57.439Z,13.80
2023-11-27T00:52:24.403Z,17.13
2023-11-27T00:54:51.282Z,17.73
2023-11-27T00:57:18.304Z,16.53
2023-11-27T00:59:45.137Z,12.00
2023-11-27T01:02:12.183Z,17.47
2023-11-27T01:04:40.492Z,14.20
2023-11-27T01:07:07.815Z,13.33
2023-11-27T01:09:37.152Z,14.70
2023-11-27T01:12:04.858Z,14.77
2023-11-27T01:14:32.458Z,15.07
2023-11-27T01:17:00.095Z,13.07
2023-11-27T01:19:27.528Z,16.07
2023-11-27T01:21:54.663Z,13.77
2023-11-27T01:24:24.238Z,11.83
2023-11-27T01:26:53.249Z,12.67
2023-11-27T01:29:22.795Z,12.63
2023-11-27T01:31:50.429Z,12.77
2023-11-27T01:34:17.843Z,13.70
2023-11-27T01:36:45.368Z,11.77
2023-11-27T01:39:12.521Z,15.17
2023-11-27T01:41:39.861Z,14.50
2023-11-27T01:44:06.804Z,16.43
2023-11-27T01:46:34.234Z,19.57
2023-11-27T01:49:01.479Z,20.20
2023-11-27T01:51:29.475Z,18.53
2023-11-27T01:54:01.600Z,11.70
2023-11-27T01:56:31.362Z,10.83
2023-11-27T01:59:00.300Z,10.87
2023-11-27T02:01:29.477Z,14.57
2023-11-27T02:03:56.629Z,12.37
2023-11-27T02:06:24.378Z,16.03
2023-11-27T02:08:51.413Z,13.33
2023-11-27T02:11:20.280Z,13.83
2023-11-27T02:13:47.506Z,11.93
2023-11-27T02:16:17.291Z,13.43
2023-11-27T02:18:44.839Z,16.10
2023-11-27T02:21:12.778Z,14.87
2023-11-27T02:23:39.973Z,12.07
2023-11-27T02:26:07.575Z,14.63
2023-11-27T02:28:34.582Z,13.20
2023-11-27T02:31:01.994Z,9.63
2023-11-27T02:33:29.033Z,12.93
2023-11-27T02:35:55.888Z,11.73
2023-11-27T02:38:22.853Z,12.03
2023-11-27T02:40:51.823Z,12.10
2023-11-27T02:43:19.334Z,13.50
2023-11-27T02:45:46.775Z,10.97
2023-11-27T02:48:13.797Z,14.27
2023-11-27T02:50:40.664Z,9.40
2023-11-27T02:53:07.507Z,11.90
2023-11-27T02:55:34.424Z,10.47
2023-11-27T02:58:01.402Z,13.70
2023-11-27T03:00:28.342Z,12.40
2023-11-27T03:02:56.072Z,13.07
2023-11-27T03:05:22.991Z,11.53
2023-11-27T03:07:49.842Z,19.53
2023-11-27T03:10:16.806Z,11.03
2023-11-27T03:12:44.938Z,10.97
2023-11-27T03:15:12.181Z,11.03
2023-11-27T03:17:42.182Z,11.03
2023-11-27T03:20:12.036Z,13.50
2023-11-27T03:22:39.633Z,10.73
2023-11-27T03:25:06.931Z,10.43
2023-11-27T03:27:33.907Z,13.93
2023-11-27T03:30:04.673Z,12.57
2023-11-27T03:32:33.290Z,12.63
2023-11-27T03:35:01.470Z,12.57
2023-11-27T03:37:30.261Z,14.43
2023-11-27T03:39:57.330Z,13.77
2023-11-27T03:42:24.340Z,10.23
2023-11-27T03:44:51.226Z,11.43
2023-11-27T03:47:18.286Z,13.23
2023-11-27T03:49:45.271Z,12.90
2023-11-27T03:52:12.358Z,14.33
2023-11-27T03:54:39.180Z,11.50
2023-11-27T03:57:06.584Z,14.03
2023-11-27T03:59:33.609Z,14.23
2023-11-27T04:02:01.706Z,15.57
2023-11-27T04:04:28.682Z,12.37
2023-11-27T04:06:55.942Z,11.93
2023-11-27T04:09:23.581Z,14.70
2023-11-27T04:11:50.713Z,11.07
2023-11-27T04:14:18.486Z,12.60
2023-11-27T04:16:45.643Z,10.60
2023-11-27T04:19:12.575Z,12.07
2023-11-27T04:21:39.598Z,11.30
2023-11-27T04:24:08.178Z,13.93
2023-11-27T04:26:35.499Z,9.63
2023-11-27T04:29:04.027Z,14.93
2023-11-27T04:31:31.341Z,10.17
2023-11-27T04:33:58.314Z,12.53
2023-11-27T04:36:25.428Z,10.93
2023-11-27T04:38:52.440Z,11.57
2023-11-27T04:41:20.713Z,10.03
2023-11-27T04:43:47.914Z,10.97
2023-11-27T04:46:15.292Z,14.13
2023-11-27T04:48:42.606Z,11.63
2023-11-27T04:51:09.839Z,15.03
2023-11-27T04:53:37.141Z,12.87
2023-11-27T04:56:05.482Z,10.23
2023-11-27T04:58:32.385Z,11.47
2023-11-27T05:01:00.134Z,14.33
2023-11-27T05:03:28.205Z,15.33
2023-11-27T05:05:59.340Z,14.37
2023-11-27T05:08:27.095Z,12.90
2023-11-27T05:10:55.201Z,12.57
2023-11-27T05:13:22.563Z,13.37
2023-11-27T05:15:49.707Z,12.43
2023-11-27T05:18:16.761Z,11.60
2023-11-27T05:20:43.788Z,11.33
2023-11-27T05:23:10.780Z,10.43
2023-11-27T05:25:37.742Z,12.67
2023-11-27T05:28:05.448Z,9.00
2023-11-27T05:30:32.584Z,9.27
2023-11-27T05:32:59.583Z,11.47
2023-11-27T05:35:27.047Z,11.43
2023-11-27T05:37:54.512Z,11.27
2023-11-27T05:40:22.282Z,15.47
2023-11-27T05:42:49.712Z,10.83
2023-11-27T05:45:16.884Z,11.07
2023-11-27T05:47:44.411Z,12.57
2023-11-27T05:50:13.683Z,9.20
2023-11-27T05:52:40.834Z,9.77
2023-11-27T05:55:08.404Z,14.33
2023-11-27T05:57:35.753Z,12.73
2023-11-27T06:00:07.298Z,8.43
2023-11-27T06:02:40.293Z,10.40
2023-11-27T06:05:07.599Z,9.20
2023-11-27T06:07:37.288Z,10.63
2023-11-27T06:10:04.997Z,10.13
2023-11-27T06:12:32.257Z,11.37
2023-11-27T06:14:59.175Z,11.43
2023-11-27T06:17:26.468Z,11.73
2023-11-27T06:19:53.606Z,11.17
2023-11-27T06:22:20.502Z,13.13
2023-11-27T06:24:49.177Z,11.37
2023-11-27T06:27:16.583Z,14.00
2023-11-27T06:29:43.556Z,13.90
2023-11-27T06:32:10.544Z,11.40
2023-11-27T06:34:37.587Z,15.00
2023-11-27T06:37:04.570Z,15.90
2023-11-27T06:39:33.511Z,12.60
2023-11-27T06:42:01.154Z,11.93
2023-11-27T06:44:28.014Z,12.90
2023-11-27T06:46:56.060Z,14.97
2023-11-27T06:49:23.132Z,19.43
2023-11-27T06:51:50.040Z,18.63
2023-11-27T06:54:16.913Z,16.13
2023-11-27T06:56:44.217Z,14.30
2023-11-27T06:59:11.068Z,13.70
2023-11-27T07:01:45.179Z,14.10
2023-11-27T07:04:12.503Z,14.07
2023-11-27T07:06:40.659Z,16.13
2023-11-27T07:09:08.333Z,12.47
2023-11-27T07:11:36.592Z,12.63
2023-11-27T07:14:04.359Z,13.33
2023-11-27T07:16:31.919Z,14.40
2023-11-27T07:18:59.140Z,11.80
2023-11-27T07:21:27.117Z,8.47
2023-11-27T07:23:57.724Z,14.77
2023-11-27T07:26:26.700Z,11.07
2023-11-27T07:28:57.258Z,8.87
2023-11-27T07:31:29.207Z,10.03
2023-11-27T07:33:56.697Z,8.33
2023-11-27T07:36:23.779Z,8.90
2023-11-27T07:38:51.965Z,10.80
2023-11-27T07:41:22.667Z,10.17
2023-11-27T07:43:51.323Z,9.40
2023-11-27T07:46:18.797Z,7.63
2023-11-27T07:48:47.600Z,10.33
2023-11-27T07:51:14.539Z,9.57
2023-11-27T07:53:41.518Z,8.87
2023-11-27T07:56:08.915Z,11.47
2023-11-27T07:58:38.025Z,11.30
2023-11-27T08:01:05.250Z,12.33
2023-11-27T08:03:37.300Z,11.73
2023-11-27T08:06:04.733Z,12.60
2023-11-27T08:08:31.668Z,8.60
2023-11-27T08:10:59.729Z,8.37
2023-11-27T08:13:26.733Z,10.07
2023-11-27T08:15:54.991Z,8.67
2023-11-27T08:18:22.167Z,8.87
2023-11-27T08:20:51.039Z,9.73
2023-11-27T08:23:18.080Z,7.93
2023-11-27T08:25:45.880Z,11.97
2023-11-27T08:28:13.109Z,10.07
2023-11-27T08:30:43.089Z,8.53
2023-11-27T08:33:10.202Z,10.67
2023-11-27T08:35:37.189Z,9.77
2023-11-27T08:38:05.540Z,7.67
2023-11-27T08:40:32.621Z,7.97
2023-11-27T08:43:01.419Z,9.23
2023-11-27T08:45:28.510Z,10.03
2023-11-27T08:47:56.564Z,7.70
2023-11-27T08:50:26.911Z,7.80
2023-11-27T08:52:59.935Z,11.37
2023-11-27T08:55:33.650Z,6.23
2023-11-27T08:58:05.159Z,11.30
2023-11-27T09:00:33.078Z,7.50
2023-11-27T09:03:01.904Z,6.60
2023-11-27T09:05:33.102Z,8.20
2023-11-27T09:08:05.961Z,9.37
2023-11-27T09:10:33.687Z,8.27
2023-11-27T09:13:00.844Z,8.30
2023-11-27T09:15:27.817Z,10.50
2023-11-27T09:17:54.732Z,9.63
2023-11-27T09:20:21.715Z,8.07
2023-11-27T09:22:48.601Z,10.07
2023-11-27T09:25:16.523Z,8.20
2023-11-27T09:27:43.646Z,6.30
2023-11-27T09:30:11.652Z,8.30
2023-11-27T09:32:39.510Z,7.17
2023-11-27T09:35:11.908Z,6.93
2023-11-27T09:37:40.166Z,8.50
2023-11-27T09:40:09.782Z,7.30
2023-11-27T09:42:45.873Z,7.30
2023-11-27T09:45:17.511Z,9.57
2023-11-27T09:47:45.173Z,10.23
2023-11-27T09:50:14.141Z,7.03
2023-11-27T09:53:06.949Z,7.50
2023-11-27T09:55:36.374Z,8.77
2023-11-27T09:58:04.156Z,8.90
2023-11-27T10:00:32.141Z,10.60
2023-11-27T10:03:00.103Z,8.43
2023-11-27T10:05:27.183Z,9.40
2023-11-27T10:07:55.413Z,7.23
2023-11-27T10:10:32.054Z,6.50
2023-11-27T10:13:04.417Z,6.03
2023-11-27T10:15:36.541Z,8.87
2023-11-27T10:18:06.253Z,9.00
2023-11-27T10:20:34.098Z,7.80
2023-11-27T10:23:03.565Z,6.90
2023-11-27T10:25:30.893Z,6.73
2023-11-27T10:27:59.252Z,6.93
2023-11-27T10:30:28.648Z,7.23
2023-11-27T10:32:55.572Z,6.70
2023-11-27T10:35:25.688Z,9.27
2023-11-27T10:37:55.416Z,5.67
2023-11-27T10:40:23.315Z,6.50
2023-11-27T10:42:51.871Z,9.87
2023-11-27T10:45:20.189Z,6.77
2023-11-27T10:47:49.448Z,5.87
2023-11-27T10:50:17.954Z,6.63
2023-11-27T10:52:49.620Z,5.07
2023-11-27T10:55:20.684Z,6.33
2023-11-27T10:57:51.489Z,6.07
2023-11-27T11:00:40.536Z,8.10
2023-11-27T11:03:16.481Z,8.50
2023-11-27T11:05:52.622Z,7.33
2023-11-27T11:08:28.299Z,7.83
2023-11-27T11:10:56.494Z,5.77
2023-11-27T11:13:25.942Z,7.13
2023-11-27T11:16:02.137Z,7.10
2023-11-27T11:18:55.957Z,7.83
2023-11-27T11:22:02.370Z,5.67
2023-11-27T11:25:17.571Z,5.77
2023-11-27T11:28:16.279Z,5.13
2023-11-27T11:30:43.372Z,5.10
2023-11-27T11:33:19.608Z,5.20
2023-11-27T11:35:51.116Z,5.93
2023-11-27T11:38:21.927Z,6.17
2023-11-27T11:40:49.693Z,6.20
2023-11-27T11:43:19.715Z,4.13
2023-11-27T11:45:50.794Z,4.53
2023-11-27T11:48:19.997Z,7.27
2023-11-27T11:50:48.522Z,4.60
2023-11-27T11:53:15.607Z,4.90
2023-11-27T11:55:42.923Z,3.17
2023-11-27T11:58:30.001Z,5.87
2023-11-27T12:01:09.993Z,5.47
2023-11-27T12:03:37.743Z,4.00
2023-11-27T12:06:14.812Z,3.50
2023-11-27T12:08:49.842Z,2.17
2023-11-27T12:11:16.925Z,6.47
2023-11-27T12:13:44.988Z,4.63
2023-11-27T12:16:13.957Z,3.17
2023-11-27T12:18:47.946Z,4.30
2023-11-27T12:21:18.124Z,4.57
2023-11-27T12:23:49.826Z,2.10
2023-11-27T12:26:26.371Z,3.17
2023-11-27T12:28:54.846Z,3.47
2023-11-27T12:31:23.811Z,4.37
2023-11-27T12:33:52.567Z,4.37
2023-11-27T12:36:22.960Z,2.70
2023-11-27T12:38:56.007Z,4.27
2023-11-27T12:41:33.163Z,2.80
2023-11-27T12:44:14.919Z,2.93
2023-11-27T12:46:49.500Z,3.60
2023-11-27T12:49:27.675Z,3.57
2023-11-27T12:51:58.981Z,3.90
2023-11-27T12:54:28.824Z,5.80
2023-11-27T12:57:03.275Z,5.37
2023-11-27T12:59:30.254Z,2.80
2023-11-27T13:02:00.523Z,3.33
2023-11-27T13:04:31.222Z,4.17
2023-11-27T13:07:06.960Z,4.93
2023-11-27T13:09:34.640Z,4.03
2023-11-27T13:12:15.943Z,3.77
2023-11-27T13:14:46.804Z,6.00
2023-11-27T13:17:25.863Z,6.03
2023-11-27T13:19:54.866Z,2.90
2023-11-27T13:22:23.892Z,4.80
2023-11-27T13:24:52.008Z,6.20
2023-11-27T13:27:22.093Z,4.07
2023-11-27T13:29:51.729Z,4.07
2023-11-27T13:32:19.349Z,8.20
2023-11-27T13:34:56.899Z,5.93
2023-11-27T13:37:35.863Z,5.30
2023-11-27T13:40:04.497Z,5.10
2023-11-27T13:42:32.444Z,6.33
2023-11-27T13:45:01.029Z,4.77
2023-11-27T13:47:28.063Z,5.80
2023-11-27T13:49:56.793Z,4.77
2023-11-27T13:52:30.712Z,4.10
2023-11-27T13:55:00.534Z,4.53
2023-11-27T13:57:29.093Z,10.53
2023-11-27T14:00:01.015Z,6.73
2023-11-27T14:02:30.019Z,6.83
2023-11-27T14:05:07.839Z,6.20
2023-11-27T14:07:41.984Z,6.80
2023-11-27T14:10:24.446Z,9.60
2023-11-27T14:13:02.210Z,6.33
2023-11-27T14:15:40.283Z,4.87
2023-11-27T14:18:22.767Z,4.93
2023-11-27T14:21:14.024Z,6.40
2023-11-27T14:23:40.892Z,6.87
2023-11-27T14:26:11.700Z,7.27
2023-11-27T14:28:48.084Z,8.33
2023-11-27T14:31:23.239Z,9.27
2023-11-27T14:33:51.624Z,8.70
2023-11-27T14:36:18.743Z,7.13
2023-11-27T14:38:49.829Z,9.17
2023-11-27T14:41:18.410Z,8.07
2023-11-27T14:43:45.560Z,5.80
2023-11-27T14:46:16.069Z,4.53
2023-11-27T14:48:44.218Z,9.07
2023-11-27T14:51:11.248Z,8.50
2023-11-27T14:53:44.015Z,5.67
2023-11-27T14:56:11.822Z,8.97
2023-11-27T14:58:38.783Z,4.47
2023-11-27T15:01:10.544Z,6.07
2023-11-27T15:03:40.904Z,7.97
2023-11-27T15:06:09.140Z,8.17
2023-11-27T15:08:36.234Z,8.77
2023-11-27T15:11:06.471Z,6.90
2023-11-27T15:13:36.897Z,8.03
2023-11-27T15:16:04.702Z,6.70
2023-11-27T15:18:32.856Z,8.17
2023-11-27T15:20:59.892Z,7.30
2023-11-27T15:23:26.720Z,7.87
2023-11-27T15:25:53.943Z,5.97
2023-11-27T15:28:24.339Z,8.07
2023-11-27T15:30:59.244Z,9.53
2023-11-27T15:33:26.734Z,9.87
2023-11-27T15:35:55.431Z,8.63
2023-11-27T15:38:26.075Z,11.87
2023-11-27T15:40:53.154Z,10.27
2023-11-27T15:43:22.228Z,16.60
2023-11-27T15:45:49.362Z,11.70
2023-11-27T15:48:16.463Z,10.33
2023-11-27T15:50:43.475Z,9.43
2023-11-27T15:53:14.070Z,17.37
2023-11-27T15:55:41.502Z,11.90
2023-11-27T15:58:10.931Z,12.37
2023-11-27T16:00:38.084Z,12.27
2023-11-27T16:03:05.093Z,13.33
2023-11-27T16:05:32.729Z,10.50
2023-11-27T16:08:00.931Z,19.57
2023-11-27T16:10:30.803Z,12.77
2023-11-27T16:12:57.785Z,8.50
2023-11-27T16:15:27.607Z,10.43
2023-11-27T16:18:00.041Z,11.00
2023-11-27T16:20:28.365Z,25.87
2023-11-27T16:22:56.016Z,18.77
2023-11-27T16:25:23.713Z,16.47
2023-11-27T16:27:52.192Z,16.03
2023-11-27T16:30:22.433Z,20.57
2023-11-27T16:32:50.974Z,19.67
2023-11-27T16:35:29.587Z,21.80
2023-11-27T16:37:56.498Z,24.33
2023-11-27T16:40:23.533Z,21.13
2023-11-27T16:42:52.749Z,49.90
2023-11-27T16:45:23.508Z,21.20
2023-11-27T16:47:54.480Z,21.60
2023-11-27T16:50:25.652Z,26.47
2023-11-27T16:52:59.012Z,30.57
2023-11-27T16:55:30.765Z,27.27
2023-11-27T16:58:06.339Z,17.97
2023-11-27T17:00:34.460Z,18.50
2023-11-27T17:03:07.641Z,16.43
2023-11-27T17:05:35.048Z,16.47
2023-11-27T17:08:11.833Z,15.77
2023-11-27T17:10:41.622Z,27.13
2023-11-27T17:13:15.442Z,21.77
2023-11-27T17:15:46.189Z,24.23
2023-11-27T17:18:14.445Z,23.30
2023-11-27T17:20:44.659Z,26.80
2023-11-27T17:23:12.469Z,24.33
2023-11-27T17:25:40.112Z,35.07
2023-11-27T17:28:11.051Z,86.47
2023-11-27T17:30:44.319Z,51.93
2023-11-27T17:33:11.781Z,21.10
2023-11-27T17:35:39.886Z,15.77
2023-11-27T17:38:07.661Z,14.93
2023-11-27T17:40:35.340Z,19.47
2023-11-27T17:43:02.895Z,16.00
2023-11-27T17:45:29.849Z,15.47
2023-11-27T17:48:00.613Z,61.73
2023-11-27T17:50:30.279Z,61.70
2023-11-27T17:52:57.484Z,35.57
2023-11-27T17:55:30.112Z,21.83
2023-11-27T17:58:01.005Z,37.97
2023-11-27T18:00:28.561Z,19.63
2023-11-27T18:02:56.473Z,41.70
2023-11-27T18:05:24.791Z,19.07
2023-11-27T18:08:03.512Z,22.97
2023-11-27T18:10:33.588Z,15.60
2023-11-27T18:13:02.054Z,13.40
2023-11-27T18:15:29.060Z,19.40
2023-11-27T18:17:55.991Z,14.57
2023-11-27T18:20:23.843Z,23.60
2023-11-27T18:22:52.742Z,23.20
2023-11-27T18:25:22.703Z,25.00
2023-11-27T18:27:50.944Z,57.13
2023-11-27T18:30:18.397Z,23.07
2023-11-27T18:32:45.830Z,23.70
2023-11-27T18:35:13.930Z,18.60
2023-11-27T18:37:42.374Z,18.30
2023-11-27T18:40:11.201Z,26.43
2023-11-27T18:42:42.145Z,21.87
2023-11-27T18:45:11.277Z,29.80
2023-11-27T18:47:40.630Z,22.67
2023-11-27T18:50:08.679Z,35.90
2023-11-27T18:52:36.501Z,45.73
2023-11-27T18:55:04.314Z,37.13
2023-11-27T18:57:32.284Z,27.20
2023-11-27T18:59:59.188Z,24.30
2023-11-27T19:02:27.167Z,26.30
2023-11-27T19:04:54.278Z,31.40
2023-11-27T19:07:21.372Z,36.13
2023-11-27T19:09:48.283Z,21.60
2023-11-27T19:12:15.812Z,28.97
2023-11-27T19:14:44.492Z,21.47
2023-11-27T19:17:12.873Z,20.73
2023-11-27T19:19:39.922Z,19.47
2023-11-27T19:22:07.074Z,21.97
2023-11-27T19:24:34.792Z,22.67
2023-11-27T19:27:04.714Z,17.40
2023-11-27T19:29:31.905Z,25.00
2023-11-27T19:31:58.997Z,18.80
2023-11-27T19:34:26.087Z,62.87
2023-11-27T19:36:54.756Z,32.83
2023-11-27T19:39:21.914Z,23.07
2023-11-27T19:41:53.199Z,26.53
2023-11-27T19:44:21.740Z,26.63
2023-11-27T19:46:51.917Z,24.33
2023-11-27T19:49:21.026Z,21.47
2023-11-27T19:51:48.152Z,22.70
2023-11-27T19:54:19.452Z,20.93
2023-11-27T19:56:47.577Z,30.00
2023-11-27T19:59:15.488Z,29.43
2023-11-27T20:01:42.527Z,32.53
2023-11-27T20:04:09.579Z,24.03
2023-11-27T20:06:40.762Z,29.07
2023-11-27T20:09:12.794Z,27.87
2023-11-27T20:11:40.747Z,27.00
2023-11-27T20:14:08.140Z,24.23
2023-11-27T20:16:35.914Z,30.77
2023-11-27T20:19:05.840Z,26.87
2023-11-27T20:21:33.385Z,23.67
2023-11-27T20:24:01.392Z,24.20
2023-11-27T20:26:29.327Z,24.93
2023-11-27T20:28:59.224Z,27.10
2023-11-27T20:31:33.733Z,30.07
2023-11-27T20:34:04.781Z,29.70
2023-11-27T20:36:32.174Z,23.13
2023-11-27T20:39:00.913Z,25.40
2023-11-27T20:41:28.031Z,23.67
2023-11-27T20:43:58.466Z,15.93
2023-11-27T20:46:28.277Z,17.87
2023-11-27T20:48:59.369Z,12.27
2023-11-27T20:51:27.078Z,14.10
2023-11-27T20:53:54.190Z,7.60
2023-11-27T20:56:21.389Z,6.63
2023-11-27T20:58:49.921Z,6.80
2023-11-27T21:01:21.258Z,8.13
2023-11-27T21:03:49.744Z,6.10
2023-11-27T21:06:17.067Z,7.70
2023-11-27T21:08:43.930Z,6.63
2023-11-27T21:11:10.715Z,3.80
2023-11-27T21:13:37.805Z,2.83
2023-11-27T21:16:05.269Z,4.00
2023-11-27T21:18:34.025Z,2.23
2023-11-27T21:21:01.178Z,2.53
2023-11-27T21:23:28.594Z,4.87
2023-11-27T21:25:55.862Z,3.20
2023-11-27T21:28:25.396Z,4.07
2023-11-27T21:30:52.689Z,4.30
2023-11-27T21:33:19.656Z,2.80
2023-11-27T21:35:46.542Z,3.33
2023-11-27T21:38:14.315Z,4.87
2023-11-27T21:40:43.071Z,1.97
2023-11-27T21:43:10.361Z,4.57
2023-11-27T21:45:37.467Z,4.90
2023-11-27T21:48:04.926Z,3.77
2023-11-27T21:50:31.904Z,1.80
2023-11-27T21:52:58.770Z,2.17
2023-11-27T21:55:26.585Z,2.70
2023-11-27T21:57:53.658Z,3.10
2023-11-27T22:00:21.128Z,4.80
2023-11-27T22:02:48.324Z,3.00
2023-11-27T22:05:15.473Z,4.27
2023-11-27T22:07:42.389Z,3.67
2023-11-27T22:10:10.904Z,2.83
2023-11-27T22:12:37.935Z,3.23
2023-11-27T22:15:06.408Z,2.57
2023-11-27T22:17:33.400Z,3.33
2023-11-27T22:20:00.300Z,2.60
2023-11-27T22:22:27.218Z,2.80
2023-11-27T22:24:54.079Z,2.43
2023-11-27T22:27:20.977Z,3.07
2023-11-27T22:29:47.868Z,2.83
2023-11-27T22:32:14.893Z,3.13
2023-11-27T22:34:41.845Z,2.60
2023-11-27T22:37:08.683Z,3.53
2023-11-27T22:39:35.589Z,4.00
2023-11-27T22:42:02.429Z,3.77
2023-11-27T22:44:29.285Z,4.37
2023-11-27T22:46:56.316Z,2.73
2023-11-27T22:49:23.387Z,2.97
2023-11-27T22:51:50.305Z,3.80
2023-11-27T22:54:17.261Z,3.47
2023-11-27T22:56:44.312Z,2.87
2023-11-27T22:59:16.706Z,3.23
2023-11-27T23:01:46.474Z,2.70
2023-11-27T23:04:21.059Z,3.90
2023-11-27T23:06:48.622Z,2.67
2023-11-27T23:09:15.571Z,2.03
2023-11-27T23:11:47.386Z,3.67
2023-11-27T23:14:15.456Z,1.93
2023-11-27T23:16:43.571Z,2.27
2023-11-27T23:19:11.007Z,1.90
2023-11-27T23:21:39.018Z,4.30
2023-11-27T23:24:13.958Z,1.73
2023-11-27T23:26:44.695Z,1.40
2023-11-27T23:29:11.627Z,1.60
2023-11-27T23:31:39.163Z,1.67
2023-11-27T23:34:06.036Z,1.90
2023-11-27T23:36:33.145Z,1.57
2023-11-27T23:38:59.984Z,1.67
2023-11-27T23:41:28.011Z,1.93
2023-11-27T23:43:56.121Z,1.30
2023-11-27T23:46:23.241Z,1.90
2023-11-27T23:48:53.525Z,1.53
2023-11-27T23:51:25.618Z,3.20
2023-11-27T23:53:52.497Z,2.37
2023-11-27T23:56:19.745Z,7.23
2023-11-27T23:58:46.749Z,1.33
